createdAt,value
2019-02-16T00:01:28.295Z,2.50
2019-02-16T00:03:56.942Z,2.58
2019-02-16T00:06:25.606Z,2.35
2019-02-16T00:08:54.348Z,2.50
2019-02-16T00:11:23.007Z,2.50
2019-02-16T00:13:51.786Z,2.60
2019-02-16T00:16:20.453Z,2.57
2019-02-16T00:18:49.213Z,2.22
2019-02-16T00:21:17.936Z,2.27
2019-02-16T00:23:46.620Z,2.65
2019-02-16T00:26:15.275Z,2.27
2019-02-16T00:28:43.929Z,2.35
2019-02-16T00:31:12.608Z,2.40
2019-02-16T00:33:41.328Z,2.20
2019-02-16T00:36:10.005Z,2.60
2019-02-16T00:38:38.710Z,2.25
2019-02-16T00:41:07.440Z,2.60
2019-02-16T00:43:36.255Z,2.02
2019-02-16T00:46:04.951Z,2.22
2019-02-16T00:48:33.606Z,2.62
2019-02-16T00:51:02.314Z,2.50
2019-02-16T00:53:30.955Z,2.10
2019-02-16T00:55:59.611Z,2.22
2019-02-16T00:58:28.347Z,2.22
2019-02-16T01:00:57.143Z,2.08
2019-02-16T01:03:25.836Z,2.10
2019-02-16T01:05:54.563Z,1.90
2019-02-16T01:08:23.209Z,2.22
2019-02-16T01:10:51.871Z,2.20
2019-02-16T01:13:20.614Z,2.40
2019-02-16T01:15:49.353Z,2.33
2019-02-16T01:18:18.084Z,2.20
2019-02-16T01:20:46.749Z,2.33
2019-02-16T01:23:15.417Z,2.20
2019-02-16T01:25:44.109Z,2.12
2019-02-16T01:28:12.873Z,2.40
2019-02-16T01:30:42.575Z,2.25
2019-02-16T01:33:11.323Z,2.08
2019-02-16T01:35:40.152Z,2.30
2019-02-16T01:38:08.916Z,2.50
2019-02-16T01:40:37.679Z,2.30
2019-02-16T01:43:06.498Z,2.27
2019-02-16T01:45:35.243Z,2.77
2019-02-16T01:48:03.959Z,2.40
2019-02-16T01:50:32.700Z,2.37
2019-02-16T01:53:01.417Z,2.52
2019-02-16T01:55:30.190Z,2.25
2019-02-16T01:57:58.951Z,2.12
2019-02-16T02:00:27.714Z,2.65
2019-02-16T02:02:56.486Z,2.30
2019-02-16T02:05:25.240Z,2.30
2019-02-16T02:07:54.041Z,2.50
2019-02-16T02:10:22.797Z,2.40
2019-02-16T02:12:51.549Z,2.35
2019-02-16T02:15:20.326Z,2.50
2019-02-16T02:17:49.068Z,2.37
2019-02-16T02:20:17.951Z,2.40
2019-02-16T02:22:47.070Z,2.37
2019-02-16T02:25:16.360Z,2.00
2019-02-16T02:27:45.174Z,2.30
2019-02-16T02:30:13.968Z,2.12
2019-02-16T02:32:42.714Z,2.62
2019-02-16T02:35:11.481Z,2.33
2019-02-16T02:37:40.343Z,2.45
2019-02-16T02:40:09.132Z,2.50
2019-02-16T02:42:37.897Z,2.50
2019-02-16T02:45:07.276Z,2.40
2019-02-16T02:47:36.005Z,2.40
2019-02-16T02:50:04.923Z,2.30
2019-02-16T02:52:33.704Z,2.72
2019-02-16T02:55:02.487Z,2.37
2019-02-16T02:57:31.436Z,2.17
2019-02-16T03:00:00.339Z,2.40
2019-02-16T03:02:29.179Z,3.02
2019-02-16T03:04:57.916Z,2.47
2019-02-16T03:07:26.708Z,2.62
2019-02-16T03:09:55.457Z,2.65
2019-02-16T03:12:24.248Z,2.52
2019-02-16T03:14:53.012Z,2.92
2019-02-16T03:17:21.834Z,2.77
2019-02-16T03:19:50.620Z,2.72
2019-02-16T03:22:19.365Z,2.80
2019-02-16T03:24:48.318Z,2.90
2019-02-16T03:27:36.276Z,2.35
2019-02-16T03:30:11.313Z,2.58
2019-02-16T03:33:02.085Z,2.75
2019-02-16T03:35:49.968Z,2.47
2019-02-16T03:38:24.559Z,2.40
2019-02-16T03:40:53.357Z,2.52
2019-02-16T03:43:22.131Z,2.70
2019-02-16T03:45:50.949Z,2.65
2019-02-16T03:48:19.639Z,2.40
2019-02-16T03:50:48.395Z,2.58
2019-02-16T03:53:17.160Z,2.62
2019-02-16T03:55:45.893Z,2.95
2019-02-16T03:58:14.665Z,2.33
2019-02-16T04:00:43.424Z,2.42
2019-02-16T04:03:12.207Z,2.50
2019-02-16T04:05:40.982Z,2.55
2019-02-16T04:08:09.754Z,2.62
2019-02-16T04:10:38.515Z,2.62
2019-02-16T04:13:07.344Z,2.37
2019-02-16T04:15:36.113Z,2.90
2019-02-16T04:18:04.814Z,2.60
2019-02-16T04:20:33.524Z,2.30
2019-02-16T04:23:02.238Z,2.62
2019-02-16T04:25:31.013Z,2.50
2019-02-16T04:27:59.752Z,2.85
2019-02-16T04:30:28.425Z,2.67
2019-02-16T04:32:57.171Z,2.40
2019-02-16T04:35:25.854Z,2.75
2019-02-16T04:37:54.575Z,2.58
2019-02-16T04:40:23.232Z,3.12
2019-02-16T04:42:51.964Z,2.50
2019-02-16T04:45:20.624Z,2.50
2019-02-16T04:47:49.308Z,2.27
2019-02-16T04:50:17.985Z,2.55
2019-02-16T04:52:46.637Z,2.62
2019-02-16T04:55:15.319Z,2.77
2019-02-16T04:57:44.009Z,2.67
2019-02-16T05:00:12.656Z,2.92
2019-02-16T05:02:41.386Z,2.90
2019-02-16T05:05:10.120Z,3.02
2019-02-16T05:07:38.788Z,2.60
2019-02-16T05:10:07.514Z,2.80
2019-02-16T05:12:36.382Z,2.60
2019-02-16T05:15:05.102Z,2.95
2019-02-16T05:17:33.763Z,2.77
2019-02-16T05:20:02.485Z,2.85
2019-02-16T05:22:31.147Z,2.47
2019-02-16T05:24:59.829Z,2.62
2019-02-16T05:27:28.549Z,2.60
2019-02-16T05:29:57.228Z,3.20
2019-02-16T05:32:25.974Z,3.17
2019-02-16T05:34:54.632Z,2.40
2019-02-16T05:37:23.286Z,2.60
2019-02-16T05:39:51.947Z,2.70
2019-02-16T05:42:20.592Z,2.72
2019-02-16T05:44:49.215Z,2.87
2019-02-16T05:47:17.902Z,2.65
2019-02-16T05:49:46.663Z,2.70
2019-02-16T05:52:15.382Z,2.55
2019-02-16T05:54:44.100Z,2.70
2019-02-16T05:57:12.762Z,2.83
2019-02-16T05:59:41.452Z,2.42
2019-02-16T06:02:10.098Z,2.53
2019-02-16T06:04:38.797Z,3.03
2019-02-16T06:07:07.480Z,2.60
2019-02-16T06:09:36.136Z,3.13
2019-02-16T06:12:04.776Z,2.52
2019-02-16T06:14:33.519Z,2.83
2019-02-16T06:17:02.206Z,2.70
2019-02-16T06:19:30.939Z,3.20
2019-02-16T06:21:59.677Z,2.87
2019-02-16T06:24:28.414Z,3.00
2019-02-16T06:26:57.153Z,3.10
2019-02-16T06:29:25.823Z,3.05
2019-02-16T06:31:54.498Z,2.73
2019-02-16T06:34:23.159Z,3.08
2019-02-16T06:36:51.858Z,2.80
2019-02-16T06:39:20.603Z,3.08
2019-02-16T06:41:49.484Z,3.17
2019-02-16T06:44:18.142Z,3.17
2019-02-16T06:46:46.874Z,3.15
2019-02-16T06:49:15.628Z,3.10
2019-02-16T06:51:44.314Z,3.10
2019-02-16T06:54:13.058Z,3.20
2019-02-16T06:57:02.822Z,2.95
2019-02-16T06:59:31.492Z,3.60
2019-02-16T07:02:00.140Z,3.25
2019-02-16T07:04:28.810Z,3.70
2019-02-16T07:06:57.478Z,3.00
2019-02-16T07:09:26.142Z,2.98
2019-02-16T07:11:54.854Z,2.60
2019-02-16T07:14:23.538Z,3.15
2019-02-16T07:17:10.063Z,3.50
2019-02-16T07:19:43.207Z,3.37
2019-02-16T07:22:12.001Z,3.60
2019-02-16T07:24:40.699Z,3.60
2019-02-16T07:27:09.362Z,3.70
2019-02-16T07:29:38.257Z,3.33
2019-02-16T07:32:07.942Z,3.40
2019-02-16T07:34:36.897Z,3.37
2019-02-16T07:37:05.617Z,3.15
2019-02-16T07:39:34.301Z,3.52
2019-02-16T07:42:03.040Z,3.45
2019-02-16T07:44:38.246Z,3.43
2019-02-16T07:47:21.158Z,3.77
2019-02-16T07:50:01.547Z,3.30
2019-02-16T07:52:40.343Z,3.52
2019-02-16T07:55:30.903Z,4.05
2019-02-16T07:58:36.984Z,3.37
2019-02-16T08:01:27.708Z,3.83
2019-02-16T08:04:03.474Z,3.90
2019-02-16T08:06:42.661Z,3.62
2019-02-16T08:09:33.255Z,3.57
2019-02-16T08:12:11.010Z,3.67
2019-02-16T08:14:57.286Z,4.10
2019-02-16T08:18:03.111Z,4.12
2019-02-16T08:20:56.772Z,4.53
2019-02-16T08:24:02.649Z,4.47
2019-02-16T08:26:56.149Z,3.98
2019-02-16T08:29:42.757Z,4.22
2019-02-16T08:32:33.606Z,4.10
2019-02-16T08:35:28.758Z,4.10
2019-02-16T08:38:11.365Z,4.60
2019-02-16T08:41:12.172Z,4.17
2019-02-16T08:44:02.782Z,4.17
2019-02-16T08:46:41.287Z,4.30
2019-02-16T08:49:17.263Z,4.37
2019-02-16T08:51:59.580Z,4.40
2019-02-16T08:55:05.722Z,4.47
2019-02-16T08:57:52.107Z,4.90
2019-02-16T09:00:33.464Z,4.72
2019-02-16T09:03:13.475Z,4.95
2019-02-16T09:06:04.117Z,4.92
2019-02-16T09:08:44.958Z,4.87
2019-02-16T09:11:25.098Z,4.67
2019-02-16T09:14:12.914Z,5.12
2019-02-16T09:16:59.437Z,4.97
2019-02-16T09:19:50.450Z,5.45
2019-02-16T09:22:53.296Z,5.45
2019-02-16T09:25:28.374Z,4.87
2019-02-16T09:28:16.130Z,5.80
2019-02-16T09:31:10.795Z,5.70
2019-02-16T09:34:13.871Z,6.03
2019-02-16T09:36:52.822Z,5.67
2019-02-16T09:39:40.853Z,5.62
2019-02-16T09:42:20.335Z,5.72
2019-02-16T09:45:14.198Z,6.37
2019-02-16T09:48:07.735Z,6.30
2019-02-16T09:50:45.567Z,6.35
2019-02-16T09:53:29.633Z,6.60
2019-02-16T09:56:13.833Z,7.42
2019-02-16T09:59:01.617Z,7.13
2019-02-16T10:02:04.563Z,7.25
2019-02-16T10:04:55.026Z,7.83
2019-02-16T10:07:31.390Z,7.47
2019-02-16T10:10:37.096Z,6.92
2019-02-16T10:13:11.967Z,6.42
2019-02-16T10:15:59.845Z,8.00
2019-02-16T10:18:34.370Z,6.95
2019-02-16T10:21:25.195Z,6.83
2019-02-16T10:24:18.749Z,7.10
2019-02-16T10:27:12.391Z,7.22
2019-02-16T10:29:58.800Z,6.97
2019-02-16T10:32:44.897Z,6.40
2019-02-16T10:35:32.682Z,6.70
2019-02-16T10:38:12.412Z,7.28
2019-02-16T10:40:59.041Z,7.30
2019-02-16T10:43:38.495Z,7.00
2019-02-16T10:46:25.020Z,6.87
2019-02-16T10:49:19.076Z,6.92
2019-02-16T10:52:02.417Z,6.65
2019-02-16T10:54:56.571Z,7.62
2019-02-16T10:57:42.556Z,7.35
2019-02-16T11:00:29.250Z,7.45
2019-02-16T11:03:07.036Z,8.10
2019-02-16T11:05:41.503Z,9.28
2019-02-16T11:08:18.025Z,7.78
2019-02-16T11:10:57.631Z,7.85
2019-02-16T11:13:33.995Z,8.35
2019-02-16T11:16:16.538Z,8.28
2019-02-16T11:18:57.818Z,8.43
2019-02-16T11:21:44.174Z,8.70
2019-02-16T11:24:22.847Z,8.67
2019-02-16T11:27:01.107Z,8.90
2019-02-16T11:29:41.544Z,8.70
2019-02-16T11:32:31.015Z,8.68
2019-02-16T11:35:17.486Z,8.35
2019-02-16T11:37:56.350Z,8.25
2019-02-16T11:40:32.208Z,8.48
2019-02-16T11:43:19.922Z,8.78
2019-02-16T11:46:20.034Z,8.30
2019-02-16T11:49:19.883Z,8.73
2019-02-16T11:52:00.114Z,8.55
2019-02-16T11:54:46.846Z,8.65
2019-02-16T11:57:33.340Z,8.28
2019-02-16T12:00:33.265Z,8.50
2019-02-16T12:03:10.861Z,8.53
2019-02-16T12:05:57.170Z,9.45
2019-02-16T12:08:53.915Z,9.25
2019-02-16T12:11:33.066Z,8.68
2019-02-16T12:14:31.562Z,9.08
2019-02-16T12:17:08.899Z,8.70
2019-02-16T12:19:46.531Z,8.88
2019-02-16T12:22:26.764Z,9.10
2019-02-16T12:25:17.661Z,9.13
2019-02-16T12:28:11.618Z,9.00
2019-02-16T12:30:53.075Z,8.88
2019-02-16T12:33:53.170Z,9.55
2019-02-16T12:36:39.681Z,9.18
2019-02-16T12:39:29.380Z,8.93
2019-02-16T12:42:10.787Z,9.28
2019-02-16T12:44:51.889Z,8.98
2019-02-16T12:47:28.176Z,9.63
2019-02-16T12:50:03.849Z,8.85
2019-02-16T12:52:44.073Z,8.80
2019-02-16T12:55:37.538Z,8.85
2019-02-16T12:58:14.795Z,8.35
2019-02-16T13:00:53.701Z,8.08
2019-02-16T13:03:53.336Z,9.08
2019-02-16T13:06:30.087Z,8.48
2019-02-16T13:09:17.829Z,8.63
2019-02-16T13:11:54.270Z,8.63
2019-02-16T13:14:33.810Z,8.30
2019-02-16T13:17:21.627Z,8.03
2019-02-16T13:20:15.635Z,9.10
2019-02-16T13:22:50.031Z,8.75
2019-02-16T13:25:42.071Z,8.10
2019-02-16T13:28:28.637Z,8.55
2019-02-16T13:31:14.563Z,8.60
2019-02-16T13:33:51.432Z,8.03
2019-02-16T13:36:41.916Z,8.23
2019-02-16T13:39:38.868Z,8.20
2019-02-16T13:42:15.904Z,7.78
2019-02-16T13:45:09.734Z,8.23
2019-02-16T13:48:00.237Z,8.03
2019-02-16T13:50:42.580Z,8.38
2019-02-16T13:53:36.257Z,8.70
2019-02-16T13:56:23.962Z,10.05
2019-02-16T13:58:58.717Z,9.25
2019-02-16T14:01:52.712Z,8.18
2019-02-16T14:04:38.848Z,8.63
2019-02-16T14:07:32.675Z,8.73
2019-02-16T14:10:13.017Z,8.85
2019-02-16T14:12:50.162Z,7.97
2019-02-16T14:15:29.565Z,8.63
2019-02-16T14:17:58.608Z,7.90
2019-02-16T14:20:27.477Z,7.58
2019-02-16T14:22:56.272Z,8.25
2019-02-16T14:25:30.705Z,8.20
2019-02-16T14:27:59.432Z,8.13
2019-02-16T14:30:28.122Z,8.05
2019-02-16T14:32:56.826Z,8.05
2019-02-16T14:35:26.564Z,8.20
2019-02-16T14:38:29.418Z,9.05
2019-02-16T14:40:58.182Z,8.25
2019-02-16T14:43:27.103Z,8.23
2019-02-16T14:45:56.323Z,8.03
2019-02-16T14:48:25.046Z,8.78
2019-02-16T14:50:53.865Z,8.38
2019-02-16T14:53:22.832Z,8.00
2019-02-16T14:55:54.233Z,8.65
2019-02-16T14:58:21.968Z,8.75
2019-02-16T15:00:51.074Z,7.95
2019-02-16T15:03:19.939Z,8.03
2019-02-16T15:05:48.687Z,8.33
2019-02-16T15:08:17.385Z,7.65
2019-02-16T15:10:46.068Z,9.18
2019-02-16T15:13:14.889Z,7.97
2019-02-16T15:15:43.739Z,8.33
2019-02-16T15:18:12.645Z,8.65
2019-02-16T15:20:41.561Z,8.60
2019-02-16T15:23:10.318Z,9.00
2019-02-16T15:25:39.030Z,8.83
2019-02-16T15:28:07.845Z,9.00
2019-02-16T15:30:36.629Z,8.13
2019-02-16T15:33:05.307Z,9.05
2019-02-16T15:35:34.096Z,9.33
2019-02-16T15:38:02.780Z,9.63
2019-02-16T15:40:31.645Z,8.50
2019-02-16T15:43:00.394Z,8.90
2019-02-16T15:45:29.107Z,9.38
2019-02-16T15:47:58.054Z,9.00
2019-02-16T15:50:26.852Z,8.88
2019-02-16T15:52:55.571Z,9.48
2019-02-16T15:55:24.348Z,8.35
2019-02-16T15:57:53.122Z,10.00
2019-02-16T16:00:26.212Z,8.68
2019-02-16T16:02:54.962Z,10.00
2019-02-16T16:05:23.736Z,9.20
2019-02-16T16:08:09.087Z,9.98
2019-02-16T16:10:42.248Z,10.48
2019-02-16T16:13:30.185Z,9.23
2019-02-16T16:16:17.878Z,9.98
2019-02-16T16:18:56.443Z,10.50
2019-02-16T16:21:59.661Z,10.00
2019-02-16T16:24:53.732Z,9.65
2019-02-16T16:27:28.735Z,9.68
2019-02-16T16:30:22.367Z,10.63
2019-02-16T16:33:19.021Z,9.50
2019-02-16T16:36:12.888Z,10.32
2019-02-16T16:39:00.113Z,9.68
2019-02-16T16:41:53.982Z,9.58
2019-02-16T16:44:40.596Z,10.18
2019-02-16T16:47:34.215Z,10.43
2019-02-16T16:50:31.114Z,9.10
2019-02-16T16:53:18.835Z,10.50
2019-02-16T16:56:00.660Z,10.15
2019-02-16T16:58:47.475Z,10.00
2019-02-16T17:01:50.705Z,10.32
2019-02-16T17:04:37.246Z,10.32
2019-02-16T17:07:17.577Z,10.10
2019-02-16T17:09:54.844Z,10.43
2019-02-16T17:12:42.669Z,10.05
2019-02-16T17:15:30.580Z,10.55
2019-02-16T17:18:13.628Z,9.68
2019-02-16T17:21:19.537Z,9.10
2019-02-16T17:23:58.394Z,9.73
2019-02-16T17:27:01.171Z,10.13
2019-02-16T17:30:01.279Z,9.85
2019-02-16T17:32:40.256Z,10.85
2019-02-16T17:35:33.736Z,10.50
2019-02-16T17:38:21.486Z,11.15
2019-02-16T17:41:15.721Z,11.35
2019-02-16T17:44:06.468Z,11.20
2019-02-16T17:46:53.033Z,11.33
2019-02-16T17:49:30.737Z,11.20
2019-02-16T17:52:09.705Z,10.60
2019-02-16T17:55:00.712Z,11.35
2019-02-16T17:57:37.363Z,10.98
2019-02-16T18:00:25.514Z,11.85
2019-02-16T18:03:22.300Z,11.93
2019-02-16T18:06:01.643Z,12.50
2019-02-16T18:08:44.055Z,11.93
2019-02-16T18:11:39.404Z,10.58
2019-02-16T18:14:21.611Z,12.07
2019-02-16T18:17:07.983Z,12.10
2019-02-16T18:19:48.469Z,12.03
2019-02-16T18:22:45.256Z,11.33
2019-02-16T18:25:22.575Z,11.43
2019-02-16T18:28:06.268Z,11.22
2019-02-16T18:31:01.073Z,11.68
2019-02-16T18:33:47.600Z,11.65
2019-02-16T18:36:27.879Z,11.53
2019-02-16T18:39:06.918Z,12.10
2019-02-16T18:42:02.436Z,11.90
2019-02-16T18:44:44.315Z,11.28
2019-02-16T18:47:32.033Z,11.28
2019-02-16T18:50:18.355Z,11.45
2019-02-16T18:52:58.820Z,11.53
2019-02-16T18:55:52.423Z,12.25
2019-02-16T18:58:35.657Z,11.15
2019-02-16T19:01:20.712Z,12.00
2019-02-16T19:04:03.210Z,11.18
2019-02-16T19:06:54.016Z,11.73
2019-02-16T19:09:40.684Z,10.78
2019-02-16T19:12:34.494Z,12.15
2019-02-16T19:15:19.623Z,11.85
2019-02-16T19:18:18.150Z,11.95
2019-02-16T19:20:54.140Z,11.78
2019-02-16T19:23:40.488Z,11.88
2019-02-16T19:26:34.115Z,12.93
2019-02-16T19:29:16.712Z,14.10
2019-02-16T19:31:52.621Z,13.45
2019-02-16T19:34:29.510Z,13.45
2019-02-16T19:37:19.405Z,14.38
2019-02-16T19:40:06.139Z,13.83
2019-02-16T19:43:03.212Z,13.68
2019-02-16T19:45:57.215Z,14.15
2019-02-16T19:48:48.234Z,14.10
2019-02-16T19:51:28.648Z,14.25
2019-02-16T19:54:14.981Z,14.63
2019-02-16T19:56:53.152Z,14.15
2019-02-16T19:59:49.679Z,14.63
2019-02-16T20:02:27.069Z,13.32
2019-02-16T20:05:23.990Z,14.45
2019-02-16T20:08:02.350Z,13.30
2019-02-16T20:10:49.138Z,13.48
2019-02-16T20:13:32.182Z,13.58
2019-02-16T20:16:22.256Z,12.70
2019-02-16T20:19:09.086Z,13.58
2019-02-16T20:22:06.307Z,12.78
2019-02-16T20:25:01.145Z,12.78
2019-02-16T20:27:48.941Z,13.83
2019-02-16T20:30:51.950Z,12.68
2019-02-16T20:33:29.551Z,13.00
2019-02-16T20:36:20.560Z,13.08
2019-02-16T20:39:08.280Z,12.78
2019-02-16T20:41:47.084Z,12.58
2019-02-16T20:44:43.920Z,12.45
2019-02-16T20:47:34.972Z,13.10
2019-02-16T20:50:26.100Z,13.68
2019-02-16T20:53:05.399Z,13.08
2019-02-16T20:55:44.443Z,13.30
2019-02-16T20:58:38.297Z,13.15
2019-02-16T21:01:17.289Z,12.47
2019-02-16T21:04:03.388Z,13.05
2019-02-16T21:06:51.170Z,13.13
2019-02-16T21:09:27.896Z,13.60
2019-02-16T21:12:06.895Z,12.73
2019-02-16T21:14:42.624Z,13.18
2019-02-16T21:17:45.530Z,11.95
2019-02-16T21:20:30.036Z,12.78
2019-02-16T21:23:17.757Z,12.80
2019-02-16T21:26:11.352Z,12.35
2019-02-16T21:28:56.617Z,13.20
2019-02-16T21:31:34.948Z,12.45
2019-02-16T21:34:34.811Z,13.08
2019-02-16T21:37:31.339Z,12.50
2019-02-16T21:40:12.330Z,11.95
2019-02-16T21:43:03.280Z,13.00
2019-02-16T21:45:54.002Z,12.37
2019-02-16T21:48:44.540Z,12.98
2019-02-16T21:51:38.595Z,12.15
2019-02-16T21:54:31.040Z,12.43
2019-02-16T21:57:25.143Z,12.55
2019-02-16T22:00:05.187Z,12.63
2019-02-16T22:02:51.829Z,12.95
2019-02-16T22:05:51.810Z,13.65
2019-02-16T22:08:38.440Z,14.50
2019-02-16T22:11:23.177Z,13.45
2019-02-16T22:13:51.856Z,14.10
2019-02-16T22:16:20.619Z,12.75
2019-02-16T22:18:49.391Z,12.60
2019-02-16T22:21:18.095Z,12.82
2019-02-16T22:23:46.808Z,12.40
2019-02-16T22:26:15.533Z,11.90
2019-02-16T22:28:44.230Z,11.60
2019-02-16T22:31:13.015Z,12.18
2019-02-16T22:33:41.823Z,12.82
2019-02-16T22:36:10.542Z,12.13
2019-02-16T22:38:39.242Z,12.45
2019-02-16T22:41:07.935Z,12.23
2019-02-16T22:43:36.628Z,12.60
2019-02-16T22:46:05.325Z,13.60
2019-02-16T22:48:34.021Z,13.28
2019-02-16T22:51:02.681Z,12.40
2019-02-16T22:53:31.396Z,12.15
2019-02-16T22:56:00.119Z,12.55
2019-02-16T22:58:29.384Z,12.50
2019-02-16T23:00:58.371Z,13.62
2019-02-16T23:03:28.678Z,11.73
2019-02-16T23:05:57.561Z,13.48
2019-02-16T23:08:26.311Z,12.07
2019-02-16T23:10:54.993Z,13.32
2019-02-16T23:13:23.711Z,13.15
2019-02-16T23:15:52.462Z,13.05
2019-02-16T23:18:21.238Z,13.08
2019-02-16T23:20:50.114Z,13.03
2019-02-16T23:23:18.997Z,12.68
2019-02-16T23:25:47.705Z,12.33
2019-02-16T23:28:16.391Z,12.73
2019-02-16T23:30:45.090Z,13.15
2019-02-16T23:33:13.852Z,12.95
2019-02-16T23:35:42.577Z,12.18
2019-02-16T23:38:11.335Z,12.75
2019-02-16T23:40:40.024Z,12.50
2019-02-16T23:43:08.764Z,12.70
2019-02-16T23:45:37.446Z,12.60
2019-02-16T23:48:06.119Z,12.80
2019-02-16T23:50:34.867Z,11.55
2019-02-16T23:53:03.531Z,11.18
2019-02-16T23:55:32.233Z,11.63
2019-02-16T23:58:00.939Z,11.48
